sensor_id;sensor_type;location;lat;lon;timestamp;P1;durP1;ratioP1;P2;durP2;ratioP2
77214;SDS011;66210;53.282;9.864;2023-02-15T00:00:05;43.05;;;15.98;;
77214;SDS011;66210;53.282;9.864;2023-02-15T00:02:36;38.63;;;16.80;;
77214;SDS011;66210;53.282;9.864;2023-02-15T00:05:03;52.05;;;18.95;;
77214;SDS011;66210;53.282;9.864;2023-02-15T00:07:29;49.42;;;17.92;;
77214;SDS011;66210;53.282;9.864;2023-02-15T00:09:56;37.28;;;16.52;;
77214;SDS011;66210;53.282;9.864;2023-02-15T00:12:23;48.58;;;19.13;;
77214;SDS011;66210;53.282;9.864;2023-02-15T00:14:49;49.28;;;18.00;;
77214;SDS011;66210;53.282;9.864;2023-02-15T00:17:18;45.72;;;17.85;;
77214;SDS011;66210;53.282;9.864;2023-02-15T00:19:45;51.65;;;20.95;;
77214;SDS011;66210;53.282;9.864;2023-02-15T00:22:11;34.47;;;15.85;;
77214;SDS011;66210;53.282;9.864;2023-02-15T00:24:38;59.65;;;17.50;;
77214;SDS011;66210;53.282;9.864;2023-02-15T00:27:04;33.70;;;16.15;;
77214;SDS011;66210;53.282;9.864;2023-02-15T00:29:31;66.80;;;17.90;;
77214;SDS011;66210;53.282;9.864;2023-02-15T00:31:57;103.35;;;17.92;;
77214;SDS011;66210;53.282;9.864;2023-02-15T00:34:25;78.55;;;17.33;;
77214;SDS011;66210;53.282;9.864;2023-02-15T00:36:53;135.85;;;15.77;;
77214;SDS011;66210;53.282;9.864;2023-02-15T00:39:19;43.28;;;15.98;;
77214;SDS011;66210;53.282;9.864;2023-02-15T00:41:46;40.10;;;16.40;;
77214;SDS011;66210;53.282;9.864;2023-02-15T00:44:13;60.10;;;16.33;;
77214;SDS011;66210;53.282;9.864;2023-02-15T00:46:40;93.47;;;14.77;;
77214;SDS011;66210;53.282;9.864;2023-02-15T00:49:07;78.63;;;15.93;;
77214;SDS011;66210;53.282;9.864;2023-02-15T00:51:33;94.53;;;16.33;;
77214;SDS011;66210;53.282;9.864;2023-02-15T00:54:00;67.80;;;16.55;;
77214;SDS011;66210;53.282;9.864;2023-02-15T00:56:26;81.60;;;14.52;;
77214;SDS011;66210;53.282;9.864;2023-02-15T00:58:54;102.40;;;15.88;;
77214;SDS011;66210;53.282;9.864;2023-02-15T01:01:21;87.97;;;15.80;;
77214;SDS011;66210;53.282;9.864;2023-02-15T01:03:48;72.78;;;16.38;;
77214;SDS011;66210;53.282;9.864;2023-02-15T01:06:15;93.43;;;15.23;;
77214;SDS011;66210;53.282;9.864;2023-02-15T01:08:42;79.80;;;16.00;;
77214;SDS011;66210;53.282;9.864;2023-02-15T01:11:14;79.43;;;15.48;;
77214;SDS011;66210;53.282;9.864;2023-02-15T01:13:51;102.93;;;16.55;;
77214;SDS011;66210;53.282;9.864;2023-02-15T01:16:20;42.42;;;16.42;;
77214;SDS011;66210;53.282;9.864;2023-02-15T01:18:47;76.07;;;16.23;;
77214;SDS011;66210;53.282;9.864;2023-02-15T01:21:17;86.45;;;15.98;;
77214;SDS011;66210;53.282;9.864;2023-02-15T01:23:46;113.00;;;15.02;;
77214;SDS011;66210;53.282;9.864;2023-02-15T01:26:13;131.32;;;15.48;;
77214;SDS011;66210;53.282;9.864;2023-02-15T01:28:40;44.97;;;14.43;;
77214;SDS011;66210;53.282;9.864;2023-02-15T01:31:08;60.78;;;13.60;;
77214;SDS011;66210;53.282;9.864;2023-02-15T01:33:36;91.53;;;13.95;;
77214;SDS011;66210;53.282;9.864;2023-02-15T01:36:04;70.88;;;13.52;;
77214;SDS011;66210;53.282;9.864;2023-02-15T01:38:30;55.55;;;14.77;;
77214;SDS011;66210;53.282;9.864;2023-02-15T01:40:58;25.05;;;14.50;;
77214;SDS011;66210;53.282;9.864;2023-02-15T01:43:47;81.82;;;14.32;;
77214;SDS011;66210;53.282;9.864;2023-02-15T01:46:26;47.70;;;13.15;;
77214;SDS011;66210;53.282;9.864;2023-02-15T01:49:00;70.20;;;14.00;;
77214;SDS011;66210;53.282;9.864;2023-02-15T01:51:33;90.47;;;13.45;;
77214;SDS011;66210;53.282;9.864;2023-02-15T01:54:15;49.78;;;14.40;;
77214;SDS011;66210;53.282;9.864;2023-02-15T01:56:47;31.48;;;12.65;;
77214;SDS011;66210;53.282;9.864;2023-02-15T01:59:16;22.95;;;12.40;;
77214;SDS011;66210;53.282;9.864;2023-02-15T02:01:46;17.38;;;10.90;;
77214;SDS011;66210;53.282;9.864;2023-02-15T02:04:17;17.63;;;11.50;;
77214;SDS011;66210;53.282;9.864;2023-02-15T02:06:51;44.92;;;11.57;;
77214;SDS011;66210;53.282;9.864;2023-02-15T02:09:19;37.65;;;11.80;;
77214;SDS011;66210;53.282;9.864;2023-02-15T02:11:46;25.50;;;11.85;;
77214;SDS011;66210;53.282;9.864;2023-02-15T02:14:18;40.65;;;11.90;;
77214;SDS011;66210;53.282;9.864;2023-02-15T02:25:33;28.77;;;12.48;;
77214;SDS011;66210;53.282;9.864;2023-02-15T02:28:10;46.22;;;10.90;;
77214;SDS011;66210;53.282;9.864;2023-02-15T02:49:41;41.40;;;10.70;;
77214;SDS011;66210;53.282;9.864;2023-02-15T02:55:08;53.10;;;10.57;;
77214;SDS011;66210;53.282;9.864;2023-02-15T02:57:41;43.63;;;11.32;;
77214;SDS011;66210;53.282;9.864;2023-02-15T03:00:12;52.00;;;9.80;;
77214;SDS011;66210;53.282;9.864;2023-02-15T03:02:42;59.22;;;10.55;;
77214;SDS011;66210;53.282;9.864;2023-02-15T03:05:14;20.00;;;11.02;;
77214;SDS011;66210;53.282;9.864;2023-02-15T03:07:46;31.02;;;11.30;;
77214;SDS011;66210;53.282;9.864;2023-02-15T03:10:18;80.55;;;10.25;;
77214;SDS011;66210;53.282;9.864;2023-02-15T03:12:48;110.40;;;10.20;;
77214;SDS011;66210;53.282;9.864;2023-02-15T03:15:18;150.57;;;10.15;;
77214;SDS011;66210;53.282;9.864;2023-02-15T03:17:48;110.60;;;10.68;;
77214;SDS011;66210;53.282;9.864;2023-02-15T03:20:27;174.57;;;10.05;;
77214;SDS011;66210;53.282;9.864;2023-02-15T03:23:07;167.10;;;10.55;;
77214;SDS011;66210;53.282;9.864;2023-02-15T03:25:40;27.27;;;9.75;;
77214;SDS011;66210;53.282;9.864;2023-02-15T03:30:39;16.67;;;8.93;;
77214;SDS011;66210;53.282;9.864;2023-02-15T03:33:10;14.07;;;9.20;;
77214;SDS011;66210;53.282;9.864;2023-02-15T03:35:49;22.27;;;9.45;;
77214;SDS011;66210;53.282;9.864;2023-02-15T03:38:28;39.95;;;9.90;;
77214;SDS011;66210;53.282;9.864;2023-02-15T03:43:53;136.35;;;8.60;;
77214;SDS011;66210;53.282;9.864;2023-02-15T03:46:27;36.78;;;9.27;;
77214;SDS011;66210;53.282;9.864;2023-02-15T03:49:01;25.75;;;9.23;;
77214;SDS011;66210;53.282;9.864;2023-02-15T03:51:33;75.20;;;8.60;;
77214;SDS011;66210;53.282;9.864;2023-02-15T03:54:06;30.73;;;9.52;;
77214;SDS011;66210;53.282;9.864;2023-02-15T03:56:36;33.42;;;9.00;;
77214;SDS011;66210;53.282;9.864;2023-02-15T03:59:05;32.75;;;8.43;;
77214;SDS011;66210;53.282;9.864;2023-02-15T04:04:38;25.15;;;8.90;;
77214;SDS011;66210;53.282;9.864;2023-02-15T04:07:08;15.48;;;9.30;;
77214;SDS011;66210;53.282;9.864;2023-02-15T04:09:35;65.80;;;9.90;;
77214;SDS011;66210;53.282;9.864;2023-02-15T04:12:20;11.68;;;8.18;;
77214;SDS011;66210;53.282;9.864;2023-02-15T04:14:47;27.33;;;8.73;;
77214;SDS011;66210;53.282;9.864;2023-02-15T04:17:33;23.05;;;9.48;;
77214;SDS011;66210;53.282;9.864;2023-02-15T04:20:01;15.65;;;7.68;;
77214;SDS011;66210;53.282;9.864;2023-02-15T04:22:47;26.95;;;8.68;;
77214;SDS011;66210;53.282;9.864;2023-02-15T04:25:32;28.73;;;9.25;;
77214;SDS011;66210;53.282;9.864;2023-02-15T04:27:59;19.00;;;9.40;;
77214;SDS011;66210;53.282;9.864;2023-02-15T04:30:26;43.72;;;9.25;;
77214;SDS011;66210;53.282;9.864;2023-02-15T04:32:53;62.10;;;9.02;;
77214;SDS011;66210;53.282;9.864;2023-02-15T04:35:20;46.55;;;8.77;;
77214;SDS011;66210;53.282;9.864;2023-02-15T04:37:47;48.03;;;8.43;;
77214;SDS011;66210;53.282;9.864;2023-02-15T04:40:14;42.30;;;8.13;;
77214;SDS011;66210;53.282;9.864;2023-02-15T04:42:47;11.15;;;8.10;;
77214;SDS011;66210;53.282;9.864;2023-02-15T04:47:42;37.60;;;7.20;;
77214;SDS011;66210;53.282;9.864;2023-02-15T04:50:09;22.98;;;7.50;;
77214;SDS011;66210;53.282;9.864;2023-02-15T04:52:36;25.95;;;8.55;;
77214;SDS011;66210;53.282;9.864;2023-02-15T04:55:03;19.83;;;7.95;;
77214;SDS011;66210;53.282;9.864;2023-02-15T04:57:31;27.27;;;7.68;;
77214;SDS011;66210;53.282;9.864;2023-02-15T04:59:58;13.18;;;7.68;;
77214;SDS011;66210;53.282;9.864;2023-02-15T05:02:25;38.55;;;7.85;;
77214;SDS011;66210;53.282;9.864;2023-02-15T05:04:52;21.13;;;7.93;;
77214;SDS011;66210;53.282;9.864;2023-02-15T05:07:19;10.93;;;7.68;;
77214;SDS011;66210;53.282;9.864;2023-02-15T05:09:46;34.60;;;7.72;;
77214;SDS011;66210;53.282;9.864;2023-02-15T05:12:13;52.50;;;7.70;;
77214;SDS011;66210;53.282;9.864;2023-02-15T05:14:40;11.88;;;6.78;;
77214;SDS011;66210;53.282;9.864;2023-02-15T05:17:09;30.42;;;7.63;;
77214;SDS011;66210;53.282;9.864;2023-02-15T05:19:36;27.65;;;7.43;;
77214;SDS011;66210;53.282;9.864;2023-02-15T05:22:05;41.83;;;7.18;;
77214;SDS011;66210;53.282;9.864;2023-02-15T05:24:32;50.03;;;7.65;;
77214;SDS011;66210;53.282;9.864;2023-02-15T05:27:17;31.25;;;7.63;;
77214;SDS011;66210;53.282;9.864;2023-02-15T05:30:02;27.73;;;7.05;;
77214;SDS011;66210;53.282;9.864;2023-02-15T05:32:29;68.90;;;7.50;;
77214;SDS011;66210;53.282;9.864;2023-02-15T05:34:56;29.77;;;7.03;;
77214;SDS011;66210;53.282;9.864;2023-02-15T05:37:23;22.67;;;7.18;;
77214;SDS011;66210;53.282;9.864;2023-02-15T05:39:50;27.05;;;6.60;;
77214;SDS011;66210;53.282;9.864;2023-02-15T05:42:16;36.53;;;7.25;;
77214;SDS011;66210;53.282;9.864;2023-02-15T05:44:43;16.52;;;6.60;;
77214;SDS011;66210;53.282;9.864;2023-02-15T05:47:10;26.58;;;7.30;;
77214;SDS011;66210;53.282;9.864;2023-02-15T05:49:36;22.23;;;6.45;;
77214;SDS011;66210;53.282;9.864;2023-02-15T05:52:03;38.42;;;6.60;;
77214;SDS011;66210;53.282;9.864;2023-02-15T05:54:30;69.00;;;7.07;;
77214;SDS011;66210;53.282;9.864;2023-02-15T05:56:57;35.97;;;6.38;;
77214;SDS011;66210;53.282;9.864;2023-02-15T05:59:23;50.17;;;6.68;;
77214;SDS011;66210;53.282;9.864;2023-02-15T06:01:50;37.42;;;6.60;;
77214;SDS011;66210;53.282;9.864;2023-02-15T06:04:17;12.82;;;6.93;;
77214;SDS011;66210;53.282;9.864;2023-02-15T06:06:44;64.80;;;8.13;;
77214;SDS011;66210;53.282;9.864;2023-02-15T06:09:11;46.95;;;6.80;;
77214;SDS011;66210;53.282;9.864;2023-02-15T06:11:39;63.20;;;7.88;;
77214;SDS011;66210;53.282;9.864;2023-02-15T06:14:05;71.70;;;7.32;;
77214;SDS011;66210;53.282;9.864;2023-02-15T06:16:32;23.45;;;7.30;;
77214;SDS011;66210;53.282;9.864;2023-02-15T06:18:59;49.20;;;6.90;;
77214;SDS011;66210;53.282;9.864;2023-02-15T06:21:27;36.42;;;7.18;;
77214;SDS011;66210;53.282;9.864;2023-02-15T06:23:55;26.33;;;6.47;;
77214;SDS011;66210;53.282;9.864;2023-02-15T06:26:21;19.13;;;6.50;;
77214;SDS011;66210;53.282;9.864;2023-02-15T06:28:48;14.13;;;7.47;;
77214;SDS011;66210;53.282;9.864;2023-02-15T06:31:15;12.35;;;6.63;;
77214;SDS011;66210;53.282;9.864;2023-02-15T06:33:42;10.77;;;6.75;;
77214;SDS011;66210;53.282;9.864;2023-02-15T06:36:08;23.17;;;7.07;;
77214;SDS011;66210;53.282;9.864;2023-02-15T06:38:35;22.92;;;7.03;;
77214;SDS011;66210;53.282;9.864;2023-02-15T06:41:02;19.27;;;6.70;;
77214;SDS011;66210;53.282;9.864;2023-02-15T06:43:29;13.40;;;7.05;;
77214;SDS011;66210;53.282;9.864;2023-02-15T06:45:55;8.52;;;6.75;;
77214;SDS011;66210;53.282;9.864;2023-02-15T06:48:22;18.08;;;7.20;;
77214;SDS011;66210;53.282;9.864;2023-02-15T06:50:49;11.10;;;6.70;;
77214;SDS011;66210;53.282;9.864;2023-02-15T06:53:15;13.55;;;7.03;;
77214;SDS011;66210;53.282;9.864;2023-02-15T06:55:42;28.02;;;7.13;;
77214;SDS011;66210;53.282;9.864;2023-02-15T06:58:09;8.90;;;6.75;;
77214;SDS011;66210;53.282;9.864;2023-02-15T07:00:36;22.75;;;7.15;;
77214;SDS011;66210;53.282;9.864;2023-02-15T07:03:02;22.33;;;6.90;;
77214;SDS011;66210;53.282;9.864;2023-02-15T07:05:32;17.10;;;7.30;;
77214;SDS011;66210;53.282;9.864;2023-02-15T07:08:00;18.88;;;6.78;;
77214;SDS011;66210;53.282;9.864;2023-02-15T07:10:27;19.50;;;6.72;;
77214;SDS011;66210;53.282;9.864;2023-02-15T07:12:54;11.55;;;7.57;;
77214;SDS011;66210;53.282;9.864;2023-02-15T07:15:21;36.33;;;7.28;;
77214;SDS011;66210;53.282;9.864;2023-02-15T07:17:48;18.63;;;7.35;;
77214;SDS011;66210;53.282;9.864;2023-02-15T07:20:18;13.68;;;8.15;;
77214;SDS011;66210;53.282;9.864;2023-02-15T07:22:47;11.73;;;8.15;;
77214;SDS011;66210;53.282;9.864;2023-02-15T07:25:14;19.20;;;7.97;;
77214;SDS011;66210;53.282;9.864;2023-02-15T07:27:42;51.03;;;6.95;;
77214;SDS011;66210;53.282;9.864;2023-02-15T07:30:10;10.45;;;7.28;;
77214;SDS011;66210;53.282;9.864;2023-02-15T07:32:39;12.82;;;8.18;;
77214;SDS011;66210;53.282;9.864;2023-02-15T07:35:30;19.10;;;7.93;;
77214;SDS011;66210;53.282;9.864;2023-02-15T07:37:56;14.30;;;6.22;;
77214;SDS011;66210;53.282;9.864;2023-02-15T07:40:23;9.40;;;7.10;;
77214;SDS011;66210;53.282;9.864;2023-02-15T07:42:50;26.58;;;7.63;;
77214;SDS011;66210;53.282;9.864;2023-02-15T07:45:21;27.65;;;7.43;;
77214;SDS011;66210;53.282;9.864;2023-02-15T07:47:48;17.48;;;7.40;;
77214;SDS011;66210;53.282;9.864;2023-02-15T07:50:14;14.70;;;7.53;;
77214;SDS011;66210;53.282;9.864;2023-02-15T07:52:41;11.27;;;7.63;;
77214;SDS011;66210;53.282;9.864;2023-02-15T07:55:08;11.73;;;8.20;;
77214;SDS011;66210;53.282;9.864;2023-02-15T07:57:35;12.63;;;8.18;;
77214;SDS011;66210;53.282;9.864;2023-02-15T08:00:02;16.08;;;7.55;;
77214;SDS011;66210;53.282;9.864;2023-02-15T08:02:30;22.92;;;8.50;;
77214;SDS011;66210;53.282;9.864;2023-02-15T08:04:56;16.85;;;8.57;;
77214;SDS011;66210;53.282;9.864;2023-02-15T08:07:23;21.15;;;8.00;;
77214;SDS011;66210;53.282;9.864;2023-02-15T08:09:50;12.88;;;8.20;;
77214;SDS011;66210;53.282;9.864;2023-02-15T08:12:16;12.23;;;8.73;;
77214;SDS011;66210;53.282;9.864;2023-02-15T08:14:43;15.90;;;8.70;;
77214;SDS011;66210;53.282;9.864;2023-02-15T08:17:10;13.73;;;8.65;;
77214;SDS011;66210;53.282;9.864;2023-02-15T08:19:37;16.73;;;8.82;;
77214;SDS011;66210;53.282;9.864;2023-02-15T08:22:07;12.68;;;8.45;;
77214;SDS011;66210;53.282;9.864;2023-02-15T08:24:36;12.45;;;8.15;;
77214;SDS011;66210;53.282;9.864;2023-02-15T08:27:04;15.27;;;8.10;;
77214;SDS011;66210;53.282;9.864;2023-02-15T08:29:32;11.32;;;8.02;;
77214;SDS011;66210;53.282;9.864;2023-02-15T08:32:01;12.70;;;8.77;;
77214;SDS011;66210;53.282;9.864;2023-02-15T08:34:31;13.88;;;8.73;;
77214;SDS011;66210;53.282;9.864;2023-02-15T08:36:59;14.20;;;8.68;;
77214;SDS011;66210;53.282;9.864;2023-02-15T08:39:27;13.65;;;8.55;;
77214;SDS011;66210;53.282;9.864;2023-02-15T08:41:54;14.85;;;9.18;;
77214;SDS011;66210;53.282;9.864;2023-02-15T08:44:20;13.15;;;8.93;;
77214;SDS011;66210;53.282;9.864;2023-02-15T08:46:47;13.05;;;8.65;;
77214;SDS011;66210;53.282;9.864;2023-02-15T08:49:16;12.90;;;8.85;;
77214;SDS011;66210;53.282;9.864;2023-02-15T08:51:45;13.25;;;8.07;;
77214;SDS011;66210;53.282;9.864;2023-02-15T08:54:14;13.20;;;8.52;;
77214;SDS011;66210;53.282;9.864;2023-02-15T08:56:48;13.23;;;8.70;;
77214;SDS011;66210;53.282;9.864;2023-02-15T08:59:16;13.05;;;8.45;;
77214;SDS011;66210;53.282;9.864;2023-02-15T09:01:45;14.25;;;9.48;;
77214;SDS011;66210;53.282;9.864;2023-02-15T09:04:13;13.50;;;8.50;;
77214;SDS011;66210;53.282;9.864;2023-02-15T09:06:42;15.30;;;9.95;;
77214;SDS011;66210;53.282;9.864;2023-02-15T09:09:13;15.27;;;9.32;;
77214;SDS011;66210;53.282;9.864;2023-02-15T09:11:41;15.60;;;9.40;;
77214;SDS011;66210;53.282;9.864;2023-02-15T09:14:11;14.13;;;8.88;;
77214;SDS011;66210;53.282;9.864;2023-02-15T09:16:40;15.27;;;10.07;;
77214;SDS011;66210;53.282;9.864;2023-02-15T09:19:08;15.18;;;9.63;;
77214;SDS011;66210;53.282;9.864;2023-02-15T09:21:36;16.48;;;9.73;;
77214;SDS011;66210;53.282;9.864;2023-02-15T09:24:05;15.90;;;10.18;;
77214;SDS011;66210;53.282;9.864;2023-02-15T09:26:35;13.57;;;8.65;;
77214;SDS011;66210;53.282;9.864;2023-02-15T09:29:09;18.08;;;10.23;;
77214;SDS011;66210;53.282;9.864;2023-02-15T09:31:39;16.60;;;10.10;;
77214;SDS011;66210;53.282;9.864;2023-02-15T09:34:11;19.77;;;10.50;;
77214;SDS011;66210;53.282;9.864;2023-02-15T09:36:40;17.30;;;10.32;;
77214;SDS011;66210;53.282;9.864;2023-02-15T09:41:43;15.18;;;9.82;;
77214;SDS011;66210;53.282;9.864;2023-02-15T09:53:12;16.88;;;11.10;;
77214;SDS011;66210;53.282;9.864;2023-02-15T10:00:59;19.52;;;10.77;;
77214;SDS011;66210;53.282;9.864;2023-02-15T10:06:36;19.95;;;11.63;;
77214;SDS011;66210;53.282;9.864;2023-02-15T10:12:01;20.27;;;11.50;;
77214;SDS011;66210;53.282;9.864;2023-02-15T10:28:31;22.00;;;12.75;;
77214;SDS011;66210;53.282;9.864;2023-02-15T10:31:26;22.00;;;12.00;;
77214;SDS011;66210;53.282;9.864;2023-02-15T10:39:51;19.80;;;11.57;;
77214;SDS011;66210;53.282;9.864;2023-02-15T10:45:23;24.10;;;12.93;;
77214;SDS011;66210;53.282;9.864;2023-02-15T10:51:08;18.95;;;11.43;;
77214;SDS011;66210;53.282;9.864;2023-02-15T10:53:47;21.25;;;12.65;;
77214;SDS011;66210;53.282;9.864;2023-02-15T10:56:30;20.70;;;11.68;;
77214;SDS011;66210;53.282;9.864;2023-02-15T11:01:59;17.77;;;10.63;;
77214;SDS011;66210;53.282;9.864;2023-02-15T11:04:51;20.67;;;12.30;;
77214;SDS011;66210;53.282;9.864;2023-02-15T11:09:49;21.80;;;12.60;;
77214;SDS011;66210;53.282;9.864;2023-02-15T11:12:23;20.85;;;12.73;;
77214;SDS011;66210;53.282;9.864;2023-02-15T11:14:55;22.02;;;13.18;;
77214;SDS011;66210;53.282;9.864;2023-02-15T11:17:25;21.58;;;13.00;;
77214;SDS011;66210;53.282;9.864;2023-02-15T11:20:04;24.83;;;13.07;;
77214;SDS011;66210;53.282;9.864;2023-02-15T11:22:43;22.05;;;13.27;;
77214;SDS011;66210;53.282;9.864;2023-02-15T11:25:17;23.10;;;13.55;;
77214;SDS011;66210;53.282;9.864;2023-02-15T11:27:46;20.20;;;12.70;;
77214;SDS011;66210;53.282;9.864;2023-02-15T11:30:24;20.80;;;13.05;;
77214;SDS011;66210;53.282;9.864;2023-02-15T11:32:57;20.15;;;12.13;;
77214;SDS011;66210;53.282;9.864;2023-02-15T11:35:47;21.65;;;12.98;;
77214;SDS011;66210;53.282;9.864;2023-02-15T11:38:21;25.23;;;13.15;;
77214;SDS011;66210;53.282;9.864;2023-02-15T11:40:52;19.98;;;12.65;;
77214;SDS011;66210;53.282;9.864;2023-02-15T11:46:29;22.25;;;11.40;;
77214;SDS011;66210;53.282;9.864;2023-02-15T11:48:56;33.05;;;14.63;;
77214;SDS011;66210;53.282;9.864;2023-02-15T11:51:24;24.35;;;13.38;;
77214;SDS011;66210;53.282;9.864;2023-02-15T11:53:54;25.80;;;13.18;;
77214;SDS011;66210;53.282;9.864;2023-02-15T11:56:22;23.25;;;12.73;;
77214;SDS011;66210;53.282;9.864;2023-02-15T11:58:55;24.25;;;13.90;;
77214;SDS011;66210;53.282;9.864;2023-02-15T12:01:32;25.52;;;13.73;;
77214;SDS011;66210;53.282;9.864;2023-02-15T12:04:06;21.83;;;12.45;;
77214;SDS011;66210;53.282;9.864;2023-02-15T12:06:41;21.65;;;13.18;;
77214;SDS011;66210;53.282;9.864;2023-02-15T12:09:16;25.40;;;13.10;;
77214;SDS011;66210;53.282;9.864;2023-02-15T12:11:49;26.10;;;14.77;;
77214;SDS011;66210;53.282;9.864;2023-02-15T12:14:16;22.58;;;13.60;;
77214;SDS011;66210;53.282;9.864;2023-02-15T12:16:44;26.52;;;13.82;;
77214;SDS011;66210;53.282;9.864;2023-02-15T12:21:59;24.42;;;14.10;;
77214;SDS011;66210;53.282;9.864;2023-02-15T12:24:30;26.67;;;14.52;;
77214;SDS011;66210;53.282;9.864;2023-02-15T12:27:03;21.52;;;12.88;;
77214;SDS011;66210;53.282;9.864;2023-02-15T12:29:32;23.58;;;14.98;;
77214;SDS011;66210;53.282;9.864;2023-02-15T12:32:08;27.45;;;13.90;;
77214;SDS011;66210;53.282;9.864;2023-02-15T12:34:42;24.88;;;14.73;;
77214;SDS011;66210;53.282;9.864;2023-02-15T12:37:11;24.13;;;14.82;;
77214;SDS011;66210;53.282;9.864;2023-02-15T12:39:56;26.15;;;14.50;;
77214;SDS011;66210;53.282;9.864;2023-02-15T12:42:25;22.65;;;13.73;;
77214;SDS011;66210;53.282;9.864;2023-02-15T12:44:54;28.08;;;16.17;;
77214;SDS011;66210;53.282;9.864;2023-02-15T12:47:27;27.80;;;15.35;;
77214;SDS011;66210;53.282;9.864;2023-02-15T12:50:29;30.13;;;15.45;;
77214;SDS011;66210;53.282;9.864;2023-02-15T12:52:50;29.23;;;16.83;;
77214;SDS011;66210;53.282;9.864;2023-02-15T12:55:31;29.83;;;17.65;;
77214;SDS011;66210;53.282;9.864;2023-02-15T12:58:05;30.08;;;16.70;;
77214;SDS011;66210;53.282;9.864;2023-02-15T13:00:33;27.35;;;16.42;;
77214;SDS011;66210;53.282;9.864;2023-02-15T13:03:01;26.90;;;15.88;;
77214;SDS011;66210;53.282;9.864;2023-02-15T13:05:34;28.60;;;15.98;;
77214;SDS011;66210;53.282;9.864;2023-02-15T13:08:08;28.48;;;16.00;;
77214;SDS011;66210;53.282;9.864;2023-02-15T13:13:29;33.17;;;16.20;;
77214;SDS011;66210;53.282;9.864;2023-02-15T13:16:05;30.25;;;15.77;;
77214;SDS011;66210;53.282;9.864;2023-02-15T13:18:44;28.02;;;15.32;;
77214;SDS011;66210;53.282;9.864;2023-02-15T13:23:42;29.42;;;15.70;;
77214;SDS011;66210;53.282;9.864;2023-02-15T13:26:14;28.40;;;16.88;;
77214;SDS011;66210;53.282;9.864;2023-02-15T13:28:54;30.60;;;16.27;;
77214;SDS011;66210;53.282;9.864;2023-02-15T13:31:23;26.42;;;13.73;;
77214;SDS011;66210;53.282;9.864;2023-02-15T13:33:56;30.38;;;16.25;;
77214;SDS011;66210;53.282;9.864;2023-02-15T13:36:30;36.97;;;16.20;;
77214;SDS011;66210;53.282;9.864;2023-02-15T13:39:15;33.40;;;16.23;;
77214;SDS011;66210;53.282;9.864;2023-02-15T13:42:08;26.90;;;15.30;;
77214;SDS011;66210;53.282;9.864;2023-02-15T13:44:48;30.75;;;15.35;;
77214;SDS011;66210;53.282;9.864;2023-02-15T13:50:35;31.25;;;16.33;;
77214;SDS011;66210;53.282;9.864;2023-02-15T13:53:18;28.90;;;15.75;;
77214;SDS011;66210;53.282;9.864;2023-02-15T13:56:25;32.53;;;16.25;;
77214;SDS011;66210;53.282;9.864;2023-02-15T13:59:38;31.60;;;16.10;;
77214;SDS011;66210;53.282;9.864;2023-02-15T14:04:53;32.25;;;16.15;;
77214;SDS011;66210;53.282;9.864;2023-02-15T14:10:38;32.25;;;16.23;;
77214;SDS011;66210;53.282;9.864;2023-02-15T14:21:15;22.60;;;13.68;;
77214;SDS011;66210;53.282;9.864;2023-02-15T14:27:08;23.45;;;12.65;;
77214;SDS011;66210;53.282;9.864;2023-02-15T14:29:59;21.83;;;12.40;;
77214;SDS011;66210;53.282;9.864;2023-02-15T14:32:45;24.30;;;12.95;;
77214;SDS011;66210;53.282;9.864;2023-02-15T14:35:15;19.73;;;11.52;;
77214;SDS011;66210;53.282;9.864;2023-02-15T14:49:11;24.98;;;12.45;;
77214;SDS011;66210;53.282;9.864;2023-02-15T14:54:09;22.55;;;12.20;;
77214;SDS011;66210;53.282;9.864;2023-02-15T14:56:37;21.90;;;12.45;;
77214;SDS011;66210;53.282;9.864;2023-02-15T15:01:38;24.60;;;12.98;;
77214;SDS011;66210;53.282;9.864;2023-02-15T15:04:06;20.75;;;12.30;;
77214;SDS011;66210;53.282;9.864;2023-02-15T15:06:37;28.25;;;14.57;;
77214;SDS011;66210;53.282;9.864;2023-02-15T15:11:54;25.80;;;12.35;;
77214;SDS011;66210;53.282;9.864;2023-02-15T15:17:01;20.60;;;10.50;;
77214;SDS011;66210;53.282;9.864;2023-02-15T15:22:19;18.05;;;10.35;;
77214;SDS011;66210;53.282;9.864;2023-02-15T15:24:51;15.88;;;8.98;;
77214;SDS011;66210;53.282;9.864;2023-02-15T15:38:36;17.20;;;8.85;;
77214;SDS011;66210;53.282;9.864;2023-02-15T15:46:46;16.75;;;7.35;;
77214;SDS011;66210;53.282;9.864;2023-02-15T15:49:36;15.07;;;8.05;;
77214;SDS011;66210;53.282;9.864;2023-02-15T15:52:15;15.68;;;8.02;;
77214;SDS011;66210;53.282;9.864;2023-02-15T15:54:44;19.13;;;9.77;;
77214;SDS011;66210;53.282;9.864;2023-02-15T15:57:21;21.42;;;10.50;;
77214;SDS011;66210;53.282;9.864;2023-02-15T15:59:51;23.25;;;10.63;;
77214;SDS011;66210;53.282;9.864;2023-02-15T16:02:20;19.45;;;9.88;;
77214;SDS011;66210;53.282;9.864;2023-02-15T16:04:47;23.38;;;12.60;;
77214;SDS011;66210;53.282;9.864;2023-02-15T16:09:40;23.60;;;12.05;;
77214;SDS011;66210;53.282;9.864;2023-02-15T16:12:14;22.58;;;12.57;;
77214;SDS011;66210;53.282;9.864;2023-02-15T16:14:43;24.83;;;13.65;;
77214;SDS011;66210;53.282;9.864;2023-02-15T16:19:44;17.05;;;10.38;;
77214;SDS011;66210;53.282;9.864;2023-02-15T16:22:29;25.40;;;12.35;;
77214;SDS011;66210;53.282;9.864;2023-02-15T16:28:05;24.02;;;12.48;;
77214;SDS011;66210;53.282;9.864;2023-02-15T16:30:34;22.30;;;11.23;;
77214;SDS011;66210;53.282;9.864;2023-02-15T16:33:08;19.42;;;10.63;;
77214;SDS011;66210;53.282;9.864;2023-02-15T16:35:38;23.33;;;12.93;;
77214;SDS011;66210;53.282;9.864;2023-02-15T16:38:08;24.33;;;12.13;;
77214;SDS011;66210;53.282;9.864;2023-02-15T16:40:47;21.95;;;11.55;;
77214;SDS011;66210;53.282;9.864;2023-02-15T16:43:27;27.23;;;11.15;;
77214;SDS011;66210;53.282;9.864;2023-02-15T16:46:02;21.08;;;11.40;;
77214;SDS011;66210;53.282;9.864;2023-02-15T16:48:31;18.90;;;10.98;;
77214;SDS011;66210;53.282;9.864;2023-02-15T16:51:00;20.70;;;9.90;;
77214;SDS011;66210;53.282;9.864;2023-02-15T16:53:28;18.60;;;9.43;;
77214;SDS011;66210;53.282;9.864;2023-02-15T16:55:57;15.65;;;9.40;;
77214;SDS011;66210;53.282;9.864;2023-02-15T16:58:27;20.10;;;9.93;;
77214;SDS011;66210;53.282;9.864;2023-02-15T17:01:05;19.33;;;9.80;;
77214;SDS011;66210;53.282;9.864;2023-02-15T17:03:34;21.63;;;10.15;;
77214;SDS011;66210;53.282;9.864;2023-02-15T17:06:02;20.45;;;11.02;;
77214;SDS011;66210;53.282;9.864;2023-02-15T17:08:43;22.95;;;11.15;;
77214;SDS011;66210;53.282;9.864;2023-02-15T17:13:42;21.30;;;11.55;;
77214;SDS011;66210;53.282;9.864;2023-02-15T17:16:33;23.95;;;12.65;;
77214;SDS011;66210;53.282;9.864;2023-02-15T17:21:37;24.48;;;11.35;;
77214;SDS011;66210;53.282;9.864;2023-02-15T17:24:16;21.98;;;11.60;;
77214;SDS011;66210;53.282;9.864;2023-02-15T17:26:53;24.70;;;12.18;;
77214;SDS011;66210;53.282;9.864;2023-02-15T17:29:29;23.48;;;11.98;;
77214;SDS011;66210;53.282;9.864;2023-02-15T17:32:00;23.35;;;10.75;;
77214;SDS011;66210;53.282;9.864;2023-02-15T17:37:23;17.17;;;10.05;;
77214;SDS011;66210;53.282;9.864;2023-02-15T17:40:24;19.25;;;10.43;;
77214;SDS011;66210;53.282;9.864;2023-02-15T17:42:55;20.38;;;10.48;;
77214;SDS011;66210;53.282;9.864;2023-02-15T17:45:22;22.30;;;11.05;;
77214;SDS011;66210;53.282;9.864;2023-02-15T17:47:52;18.35;;;10.25;;
77214;SDS011;66210;53.282;9.864;2023-02-15T17:50:23;24.13;;;10.90;;
77214;SDS011;66210;53.282;9.864;2023-02-15T17:52:52;18.98;;;10.98;;